Time,TemperatureF,DewpointF,PressureIn,WindDirection,WindDirectionDegrees,WindSpeedMPH,WindSpeedGustMPH,Humidity,HourlyPrecipIn,Conditions,Clouds,dailyrainin,SoftwareType,DateUTC
2013-09-03 12:04:00,72.7,70.5,29.80,South,176,3.2,3.2,93,0.00,,,0.17,VWS V14.01,2013-09-03 16:04:00,
2013-09-03 12:05:00,72.7,70.4,29.80,West,280,8.5,8.5,92,0.32,,,0.17,VWS V14.01,2013-09-03 16:05:00,
2013-09-03 12:08:00,72.7,70.4,29.80,West,263,0.0,8.5,92,0.32,,,0.17,VWS V14.01,2013-09-03 16:08:00,
2013-09-03 12:13:00,72.3,69.6,29.80,West,263,0.0,0.0,91,0.00,,OVC021,0.17,VWS V14.01,2013-09-03 16:13:00,
2013-09-03 12:18:00,72.5,70.0,29.80,West,263,0.0,0.0,92,0.00,,OVC021,0.17,VWS V14.01,2013-09-03 16:18:00,
2013-09-03 12:23:00,72.3,69.7,29.80,West,263,0.0,0.0,92,0.00,,OVC021,0.17,VWS V14.01,2013-09-03 16:23:00,
2013-09-03 12:28:00,72.1,69.6,29.80,West,263,0.0,0.0,92,0.00,,OVC021,0.17,VWS V14.01,2013-09-03 16:28:00,
2013-09-03 12:33:00,71.9,69.3,29.80,West,263,0.0,0.0,92,0.00,,OVC021,0.17,VWS V14.01,2013-09-03 16:33:00,
2013-09-03 12:38:00,72.2,69.7,29.80,West,263,0.0,0.0,92,0.00,,OVC021,0.17,VWS V14.01,2013-09-03 16:38:00,
2013-09-03 12:43:00,72.2,69.5,29.80,West,263,0.0,0.0,91,0.00,,OVC021,0.17,VWS V14.01,2013-09-03 16:43:00,
2013-09-03 12:48:00,72.4,69.6,29.80,West,263,0.0,0.0,91,0.00,,OVC021,0.17,VWS V14.01,2013-09-03 16:48:00,
2013-09-03 12:53:00,72.7,69.8,29.80,West,263,0.0,0.0,91,0.00,,OVC021,0.17,VWS V14.01,2013-09-03 16:53:00,
2013-09-03 12:58:00,72.8,69.9,29.81,West,263,0.0,0.0,91,0.00,,OVC021,0.17,VWS V14.01,2013-09-03 16:58:00,
2013-09-03 13:04:00,72.8,69.7,29.81,East,80,0.0,0.0,90,0.00,,OVC023,0.17,VWS V14.01,2013-09-03 17:04:00,
2013-09-03 13:09:00,72.7,69.7,29.81,West,271,5.2,7.6,90,0.00,,OVC023,0.17,VWS V14.01,2013-09-03 17:09:00,
2013-09-03 13:14:00,72.2,69.0,29.81,WSW,256,0.0,0.0,90,0.00,,OVC023,0.17,VWS V14.01,2013-09-03 17:14:00,
2013-09-03 13:19:00,72.1,69.0,29.81,SW,222,0.0,9.9,90,0.00,,OVC023,0.17,VWS V14.01,2013-09-03 17:19:00,
2013-09-03 13:24:00,71.8,68.8,29.81,SSW,210,0.0,5.0,90,0.00,,OVC023,0.17,VWS V14.01,2013-09-03 17:24:00,
2013-09-03 13:29:00,71.9,69.0,29.81,NNW,332,0.0,5.0,90,0.00,,OVC023,0.17,VWS V14.01,2013-09-03 17:29:00,
2013-09-03 13:34:00,71.9,69.0,29.81,SSW,198,0.0,0.0,91,0.00,,OVC023,0.17,VWS V14.01,2013-09-03 17:34:00,
2013-09-03 13:39:00,71.4,68.5,29.81,SSW,211,0.0,7.3,90,0.00,,OVC023,0.17,VWS V14.01,2013-09-03 17:39:00,
2013-09-03 13:44:00,71.0,68.2,29.81,NE,49,0.0,0.0,91,0.00,,OVC023,0.17,VWS V14.01,2013-09-03 17:44:00,
2013-09-03 13:49:00,70.7,68.1,29.81,NE,49,0.0,0.0,91,0.00,,OVC023,0.17,VWS V14.01,2013-09-03 17:49:00,
2013-09-03 13:54:00,70.7,68.2,29.81,ENE,72,0.0,3.4,92,0.00,,OVC023,0.17,VWS V14.01,2013-09-03 17:54:00,
2013-09-03 13:59:00,70.6,67.9,29.80,SE,139,0.0,7.9,91,0.00,,OVC023,0.17,VWS V14.01,2013-09-03 17:59:00,
2013-09-03 14:04:00,71.0,68.4,29.80,SE,139,0.0,0.0,91,0.00,,OVC015,0.17,VWS V14.01,2013-09-03 18:04:00,
2013-09-03 14:09:00,71.5,68.9,29.80,South,169,0.0,5.7,91,0.00,,OVC015,0.17,VWS V14.01,2013-09-03 18:09:00,
2013-09-03 14:14:00,72.0,68.3,29.80,WNW,284,4.2,13.1,88,0.00,,OVC015,0.17,VWS V14.01,2013-09-03 18:14:00,
2013-09-03 14:19:00,73.0,68.3,29.80,SE,134,0.0,13.1,85,0.00,,OVC015,0.17,VWS V14.01,2013-09-03 18:19:00,
2013-09-03 14:25:00,73.8,69.3,29.80,SE,134,0.0,0.0,86,0.00,,OVC015,0.17,VWS V14.01,2013-09-03 18:25:00,
2013-09-03 14:30:00,73.9,66.9,29.80,SSW,198,0.0,9.3,79,0.00,,OVC015,0.17,VWS V14.01,2013-09-03 18:30:00,
2013-09-03 14:35:00,74.4,67.1,29.79,West,262,2.5,6.0,78,0.00,,OVC015,0.17,VWS V14.01,2013-09-03 18:35:00,
2013-09-03 14:40:00,74.8,67.0,29.80,SSW,210,0.0,3.4,77,0.00,,OVC015,0.17,VWS V14.01,2013-09-03 18:40:00,
2013-09-03 14:45:00,75.1,66.8,29.80,SW,225,3.0,6.5,75,0.00,,OVC015,0.17,VWS V14.01,2013-09-03 18:45:00,
2013-09-03 14:51:00,75.7,67.1,29.80,SSW,194,0.0,0.0,75,0.00,,OVC015,0.17,VWS V14.01,2013-09-03 18:51:00,
2013-09-03 14:56:00,76.2,68.0,29.79,ENE,68,0.0,7.4,76,0.00,,OVC015,0.17,VWS V14.01,2013-09-03 18:56:00,
2013-09-03 15:01:00,76.2,67.5,29.79,NE,52,0.0,7.4,74,0.00,,BKN021,0.17,VWS V14.01,2013-09-03 19:01:00,
2013-09-03 15:06:00,76.7,70.0,29.79,ENE,70,0.0,0.0,80,0.00,,BKN021,0.17,VWS V14.01,2013-09-03 19:06:00,
2013-09-03 15:11:00,76.8,68.0,29.79,ENE,70,0.0,0.0,74,0.00,,BKN021,0.17,VWS V14.01,2013-09-03 19:11:00,
2013-09-03 15:16:00,76.9,67.5,29.79,East,80,0.0,0.0,73,0.00,,BKN021,0.17,VWS V14.01,2013-09-03 19:16:00,
2013-09-03 15:21:00,76.7,67.4,29.79,ENE,63,0.0,6.6,73,0.00,,BKN021,0.17,VWS V14.01,2013-09-03 19:21:00,
2013-09-03 15:26:00,76.4,66.9,29.79,East,80,0.0,4.9,72,0.00,,BKN021,0.17,VWS V14.01,2013-09-03 19:26:00,
2013-09-03 15:31:00,76.0,67.1,29.79,East,80,0.0,4.9,74,0.00,,BKN021,0.17,VWS V14.01,2013-09-03 19:31:00,
2013-09-03 15:36:00,75.8,68.6,29.79,East,80,0.0,0.0,78,0.00,,BKN021,0.17,VWS V14.01,2013-09-03 19:36:00,
2013-09-03 15:41:00,75.4,66.9,29.79,East,80,0.0,0.0,75,0.00,,BKN021,0.17,VWS V14.01,2013-09-03 19:41:00,
2013-09-03 15:46:00,75.3,66.7,29.79,SW,229,2.8,4.7,75,0.00,,BKN021,0.17,VWS V14.01,2013-09-03 19:46:00,
2013-09-03 15:51:00,75.6,66.6,29.79,West,267,0.0,0.0,74,0.00,,BKN021,0.17,VWS V14.01,2013-09-03 19:51:00,
2013-09-03 15:56:00,76.0,67.9,29.79,SSE,155,0.0,8.1,76,0.00,,BKN021,0.17,VWS V14.01,2013-09-03 19:56:00,
2013-09-03 16:01:00,76.2,66.7,29.79,SSE,149,0.0,8.1,72,0.00,,FEW044,0.17,VWS V14.01,2013-09-03 20:01:00,
2013-09-03 16:06:00,76.1,67.2,29.79,East,84,0.0,0.0,74,0.00,,FEW044,0.17,VWS V14.01,2013-09-03 20:06:00,
2013-09-03 16:11:00,75.9,66.4,29.79,West,263,0.0,5.4,72,0.00,,FEW044,0.17,VWS V14.01,2013-09-03 20:11:00,
2013-09-03 16:16:00,75.7,65.3,29.79,NW,304,0.0,4.5,70,0.00,,FEW044,0.17,VWS V14.01,2013-09-03 20:16:00,
2013-09-03 16:22:00,75.8,64.8,29.79,West,263,5.5,5.5,69,0.00,,FEW044,0.17,VWS V14.01,2013-09-03 20:22:00,
2013-09-03 16:27:00,76.3,66.1,29.79,SW,215,0.0,3.2,71,0.00,,FEW044,0.17,VWS V14.01,2013-09-03 20:27:00,
2013-09-03 16:32:00,76.4,65.5,29.79,ESE,118,0.0,5.8,69,0.00,,FEW044,0.17,VWS V14.01,2013-09-03 20:32:00,
2013-09-03 16:37:00,76.9,66.8,29.79,ESE,118,0.0,0.0,71,0.00,,FEW044,0.17,VWS V14.01,2013-09-03 20:37:00,
2013-09-03 16:42:00,77.1,65.7,29.79,ESE,118,0.0,0.0,68,0.00,,FEW044,0.17,VWS V14.01,2013-09-03 20:42:00,
2013-09-03 16:47:00,77.0,64.8,29.79,ESE,118,0.0,0.0,66,0.00,,FEW044,0.17,VWS V14.01,2013-09-03 20:47:00,
2013-09-03 16:52:00,76.9,66.8,29.80,SSW,207,0.0,0.0,71,0.00,,FEW044,0.17,VWS V14.01,2013-09-03 20:52:00,
2013-09-03 16:57:00,76.2,64.8,29.80,ESE,120,0.0,6.3,68,0.00,,FEW044,0.17,VWS V14.01,2013-09-03 20:57:00,
2013-09-03 17:02:00,75.9,65.5,29.80,SSE,150,0.0,6.4,70,0.00,,BKN049,0.17,VWS V14.01,2013-09-03 21:02:00,
2013-09-03 17:07:00,75.4,63.8,29.80,SSE,150,0.0,0.0,67,0.00,,BKN049,0.17,VWS V14.01,2013-09-03 21:07:00,
2013-09-03 17:12:00,75.2,63.3,29.80,SE,134,0.0,6.5,66,0.00,,BKN049,0.17,VWS V14.01,2013-09-03 21:12:00,
2013-09-03 17:17:00,75.3,64.3,29.80,SE,134,0.0,0.0,69,0.00,,BKN049,0.17,VWS V14.01,2013-09-03 21:17:00,
2013-09-03 17:22:00,75.2,63.0,29.81,SSW,204,0.0,0.0,66,0.00,,BKN049,0.17,VWS V14.01,2013-09-03 21:22:00,
2013-09-03 17:27:00,75.3,63.5,29.81,SSW,204,0.0,0.0,67,0.00,,BKN049,0.17,VWS V14.01,2013-09-03 21:27:00,
2013-09-03 17:32:00,75.3,64.3,29.81,SSW,204,0.0,0.0,69,0.00,,BKN049,0.17,VWS V14.01,2013-09-03 21:32:00,
2013-09-03 17:37:00,75.0,62.8,29.81,SSW,204,0.0,0.0,66,0.00,,BKN049,0.17,VWS V14.01,2013-09-03 21:37:00,
2013-09-03 17:43:00,75.0,62.4,29.81,SSW,204,0.0,0.0,65,0.00,,BKN049,0.17,VWS V14.01,2013-09-03 21:43:00,
2013-09-03 17:48:00,75.1,62.4,29.80,SSW,204,0.0,0.0,65,0.00,,BKN049,0.17,VWS V14.01,2013-09-03 21:48:00,
2013-09-03 17:53:00,75.0,62.3,29.80,SSW,204,0.0,0.0,65,0.00,,BKN049,0.17,VWS V14.01,2013-09-03 21:53:00,
2013-09-03 17:58:00,74.8,62.0,29.81,West,269,5.5,8.5,64,0.00,,BKN049,0.17,VWS V14.01,2013-09-03 21:58:00,
2013-09-03 18:03:00,74.9,65.6,29.81,WSW,257,0.0,0.0,73,0.00,,FEW050,0.17,VWS V14.01,2013-09-03 22:03:00,
2013-09-03 18:08:00,73.9,62.5,29.81,WSW,257,0.0,1.7,68,0.00,,FEW050,0.17,VWS V14.01,2013-09-03 22:08:00,
2013-09-03 18:13:00,73.7,62.5,29.81,WSW,257,0.0,0.0,68,0.00,,FEW050,0.17,VWS V14.01,2013-09-03 22:13:00,
2013-09-03 18:18:00,73.5,61.6,29.82,WSW,257,0.0,0.0,66,0.00,,FEW050,0.17,VWS V14.01,2013-09-03 22:18:00,
2013-09-03 18:23:00,73.4,64.6,29.81,WSW,257,0.0,0.0,74,0.00,,FEW050,0.17,VWS V14.01,2013-09-03 22:23:00,
2013-09-03 18:28:00,72.8,64.4,29.82,WSW,257,0.0,0.0,75,0.00,,FEW050,0.17,VWS V14.01,2013-09-03 22:28:00,
2013-09-03 18:33:00,71.9,64.5,29.82,WSW,257,0.0,0.0,78,0.00,,FEW050,0.17,VWS V14.01,2013-09-03 22:33:00,
2013-09-03 18:38:00,71.0,63.8,29.82,WSW,257,0.0,0.0,78,0.00,,FEW050,0.17,VWS V14.01,2013-09-03 22:38:00,
2013-09-03 18:43:00,70.4,63.6,29.82,WSW,257,0.0,0.0,79,0.00,,FEW050,0.17,VWS V14.01,2013-09-03 22:43:00,
2013-09-03 18:49:00,69.7,63.3,29.82,WSW,257,0.0,0.0,80,0.00,,FEW050,0.17,VWS V14.01,2013-09-03 22:49:00,
2013-09-03 18:54:00,69.3,63.4,29.82,WSW,257,0.0,0.0,82,0.00,,FEW050,0.17,VWS V14.01,2013-09-03 22:54:00,
2013-09-03 18:59:00,69.0,63.6,29.82,WSW,257,0.0,0.0,83,0.00,,FEW050,0.17,VWS V14.01,2013-09-03 22:59:00,
2013-09-03 19:04:00,68.7,64.1,29.82,WSW,257,0.0,0.0,85,0.00,,CLR,0.17,VWS V14.01,2013-09-03 23:04:00,
2013-09-03 19:09:00,68.3,64.0,29.83,WSW,257,0.0,0.0,86,0.00,,CLR,0.17,VWS V14.01,2013-09-03 23:09:00,
2013-09-03 19:14:00,67.9,63.7,29.83,WSW,257,0.0,0.0,86,0.00,,CLR,0.17,VWS V14.01,2013-09-03 23:14:00,
2013-09-03 19:19:00,67.4,63.5,29.83,WSW,257,0.0,0.0,87,0.00,,CLR,0.17,VWS V14.01,2013-09-03 23:19:00,
2013-09-03 19:24:00,67.1,63.4,29.83,WSW,257,0.0,0.0,88,0.00,,CLR,0.17,VWS V14.01,2013-09-03 23:24:00,
2013-09-03 19:29:00,66.8,63.3,29.83,WSW,257,0.0,0.0,89,0.00,,CLR,0.17,VWS V14.01,2013-09-03 23:29:00,
2013-09-03 19:34:00,66.4,63.0,29.84,WSW,257,0.0,0.0,89,0.00,,CLR,0.17,VWS V14.01,2013-09-03 23:34:00,
2013-09-03 19:39:00,66.0,62.7,29.84,WSW,257,0.0,0.0,89,0.00,,CLR,0.17,VWS V14.01,2013-09-03 23:39:00,
2013-09-03 19:44:00,65.8,62.7,29.84,WSW,257,0.0,0.0,90,0.00,,CLR,0.17,VWS V14.01,2013-09-03 23:44:00,
2013-09-03 19:49:00,65.4,62.5,29.84,WSW,257,0.0,0.0,90,0.00,,CLR,0.17,VWS V14.01,2013-09-03 23:49:00,
2013-09-03 19:54:00,65.3,62.5,29.84,WSW,257,0.0,0.0,90,0.00,,CLR,0.17,VWS V14.01,2013-09-03 23:54:00,
2013-09-03 19:59:00,65.1,62.4,29.85,WSW,257,0.0,0.0,91,0.00,,CLR,0.17,VWS V14.01,2013-09-03 23:59:00,
2013-09-03 20:04:00,65.0,62.4,29.85,WSW,257,0.0,0.0,91,0.00,,OVC060,0.17,VWS V14.01,2013-09-04 00:04:00,
2013-09-03 20:09:00,64.8,62.3,29.85,WSW,257,0.0,0.0,92,0.00,,OVC060,0.17,VWS V14.01,2013-09-04 00:09:00,
2013-09-03 20:15:00,64.8,62.4,29.86,WSW,257,0.0,0.0,92,0.00,,OVC060,0.17,VWS V14.01,2013-09-04 00:15:00,
2013-09-03 20:20:00,64.8,62.5,29.86,WSW,257,0.0,0.0,92,0.00,,OVC060,0.17,VWS V14.01,2013-09-04 00:20:00,
2013-09-03 20:25:00,64.5,62.2,29.86,WSW,257,0.0,0.0,92,0.00,,OVC060,0.17,VWS V14.01,2013-09-04 00:25:00,
2013-09-03 20:30:00,64.5,62.4,29.86,WSW,257,0.0,0.0,93,0.00,,OVC060,0.17,VWS V14.01,2013-09-04 00:30:00,
2013-09-03 20:35:00,64.3,62.2,29.87,WSW,257,0.0,0.0,93,0.00,,OVC060,0.17,VWS V14.01,2013-09-04 00:35:00,
2013-09-03 20:40:00,64.2,62.1,29.87,WSW,257,0.0,0.0,93,0.00,,OVC060,0.17,VWS V14.01,2013-09-04 00:40:00,
2013-09-03 20:45:00,64.1,62.0,29.87,WSW,257,0.0,0.0,93,0.00,,OVC060,0.17,VWS V14.01,2013-09-04 00:45:00,
2013-09-03 20:50:00,64.0,62.0,29.87,WSW,257,0.0,0.0,93,0.00,,OVC060,0.17,VWS V14.01,2013-09-04 00:50:00,
2013-09-03 20:55:00,63.8,61.8,29.87,WSW,257,0.0,0.0,93,0.00,,OVC060,0.17,VWS V14.01,2013-09-04 00:55:00,
2013-09-03 21:00:00,63.6,61.6,29.87,WSW,257,0.0,0.0,93,0.00,,SCT060,0.17,VWS V14.01,2013-09-04 01:00:00,
2013-09-03 21:05:00,63.4,61.5,29.87,WSW,257,0.0,0.0,93,0.00,,SCT060,0.17,VWS V14.01,2013-09-04 01:05:00,
2013-09-03 21:10:00,63.3,61.4,29.87,WSW,257,0.0,0.0,94,0.00,,SCT060,0.17,VWS V14.01,2013-09-04 01:10:00,
2013-09-03 21:15:00,63.1,61.2,29.88,WSW,257,0.0,0.0,94,0.00,,SCT060,0.17,VWS V14.01,2013-09-04 01:15:00,
2013-09-03 21:20:00,63.2,61.3,29.88,WSW,257,0.0,0.0,94,0.00,,SCT060,0.17,VWS V14.01,2013-09-04 01:20:00,
2013-09-03 21:25:00,63.2,61.3,29.88,WSW,257,0.0,0.0,94,0.00,,SCT060,0.17,VWS V14.01,2013-09-04 01:25:00,
2013-09-03 21:30:00,63.1,61.3,29.88,WSW,257,0.0,0.0,94,0.00,,SCT060,0.17,VWS V14.01,2013-09-04 01:30:00,
2013-09-03 21:36:00,63.1,61.3,29.88,WSW,257,0.0,0.0,94,0.00,,SCT060,0.17,VWS V14.01,2013-09-04 01:36:00,
2013-09-03 21:41:00,63.0,61.2,29.89,WSW,257,0.0,0.0,94,0.00,,SCT060,0.17,VWS V14.01,2013-09-04 01:41:00,
2013-09-03 21:46:00,63.0,61.1,29.89,WSW,257,0.0,0.0,94,0.00,,SCT060,0.17,VWS V14.01,2013-09-04 01:46:00,
2013-09-03 21:51:00,63.2,61.0,29.89,WSW,257,0.0,0.0,93,0.00,,SCT060,0.17,VWS V14.01,2013-09-04 01:51:00,
2013-09-03 21:56:00,63.5,61.1,29.89,WSW,257,0.0,0.0,92,0.00,,SCT060,0.17,VWS V14.01,2013-09-04 01:56:00,
2013-09-03 22:01:00,63.9,61.5,29.89,WSW,257,0.0,0.0,92,0.00,,CLR,0.17,VWS V14.01,2013-09-04 02:01:00,
2013-09-03 22:06:00,63.7,61.2,29.89,WSW,257,0.0,0.0,92,0.00,,CLR,0.17,VWS V14.01,2013-09-04 02:06:00,
2013-09-03 22:11:00,63.6,61.1,29.89,WSW,257,0.0,0.0,92,0.00,,CLR,0.17,VWS V14.01,2013-09-04 02:11:00,
2013-09-03 22:16:00,63.5,61.0,29.89,WSW,257,0.0,0.0,92,0.00,,CLR,0.17,VWS V14.01,2013-09-04 02:16:00,
2013-09-03 22:21:00,63.3,60.8,29.89,WSW,257,0.0,0.0,92,0.00,,CLR,0.17,VWS V14.01,2013-09-04 02:21:00,
2013-09-03 22:26:00,63.0,60.5,29.89,WSW,257,0.0,0.0,92,0.00,,CLR,0.17,VWS V14.01,2013-09-04 02:26:00,
2013-09-03 22:31:00,62.8,60.4,29.89,WSW,257,0.0,0.0,92,0.00,,CLR,0.17,VWS V14.01,2013-09-04 02:31:00,
2013-09-03 22:36:00,62.5,60.2,29.89,WSW,257,0.0,0.0,92,0.00,,CLR,0.17,VWS V14.01,2013-09-04 02:36:00,
2013-09-03 22:41:00,62.2,59.9,29.90,WSW,257,0.0,0.0,92,0.00,,CLR,0.17,VWS V14.01,2013-09-04 02:41:00,
2013-09-03 22:46:00,61.9,59.7,29.90,WSW,257,0.0,0.0,92,0.00,,CLR,0.17,VWS V14.01,2013-09-04 02:46:00,
2013-09-03 22:51:00,61.6,59.4,29.90,WSW,257,0.0,0.0,92,0.00,,CLR,0.17,VWS V14.01,2013-09-04 02:51:00,
2013-09-03 22:57:00,61.4,59.3,29.90,WSW,257,0.0,0.0,93,0.00,,CLR,0.17,VWS V14.01,2013-09-04 02:57:00,
2013-09-03 23:02:00,61.1,59.1,29.90,WSW,257,0.0,0.0,93,0.00,,CLR,0.17,VWS V14.01,2013-09-04 03:02:00,
2013-09-03 23:07:00,61.0,59.0,29.90,WSW,257,0.0,0.0,93,0.00,,CLR,0.17,VWS V14.01,2013-09-04 03:07:00,
2013-09-03 23:12:00,60.8,58.9,29.90,WSW,257,0.0,0.0,94,0.00,,CLR,0.17,VWS V14.01,2013-09-04 03:12:00,
2013-09-03 23:17:00,60.6,58.8,29.90,WSW,257,0.0,0.0,94,0.00,,CLR,0.17,VWS V14.01,2013-09-04 03:17:00,
2013-09-03 23:22:00,60.4,58.6,29.91,WSW,257,0.0,0.0,94,0.00,,CLR,0.17,VWS V14.01,2013-09-04 03:22:00,
2013-09-03 23:27:00,60.5,58.8,29.91,WSW,257,0.0,0.0,94,0.00,,CLR,0.17,VWS V14.01,2013-09-04 03:27:00,
2013-09-03 23:32:00,60.4,58.8,29.90,WSW,257,0.0,0.0,94,0.00,,CLR,0.17,VWS V14.01,2013-09-04 03:32:00,
2013-09-03 23:37:00,60.2,58.6,29.90,WSW,257,0.0,0.0,94,0.00,,CLR,0.17,VWS V14.01,2013-09-04 03:37:00,
2013-09-03 23:42:00,60.1,58.6,29.90,WSW,257,0.0,0.0,95,0.00,,CLR,0.17,VWS V14.01,2013-09-04 03:42:00,
2013-09-03 23:47:00,60.0,58.5,29.90,WSW,257,0.0,0.0,95,0.00,,CLR,0.17,VWS V14.01,2013-09-04 03:47:00,
2013-09-03 23:52:00,59.9,58.5,29.90,WSW,257,0.0,0.0,95,0.00,,CLR,0.17,VWS V14.01,2013-09-04 03:52:00,
2013-09-03 23:57:00,59.8,58.4,29.90,WSW,257,0.0,0.0,95,0.00,,CLR,0.17,VWS V14.01,2013-09-04 03:57:00,